Time;durP1;ratioP1;P1;durP2;ratioP2;P2;SDS_P1;SDS_P2;PMS_P1;PMS_P2;Temp;Humidity;BMP_temperature;BMP_pressure;BME280_temperature;BME280_humidity;BME280_pressure;Samples;Min_cycle;Max_cycle;Signal;HPM_P1;HPM_P2
2021/06/07 00:01:14;;;;;;;3.08;2.85;;;16.40;99.90;;;;;;5072906;28;20214;-72
2021/06/07 00:03:41;;;;;;;2.78;2.50;;;16.40;99.90;;;;;;5072089;28;20590;-72
2021/06/07 00:06:07;;;;;;;2.60;2.40;;;16.30;99.90;;;;;;5072597;28;20217;-72
2021/06/07 00:08:35;;;;;;;3.05;2.85;;;16.40;99.90;;;;;;5072175;28;20689;-72
2021/06/07 00:11:03;;;;;;;2.63;2.42;;;16.30;99.90;;;;;;5072410;28;20228;-72
2021/06/07 00:13:30;;;;;;;2.83;2.63;;;16.30;99.90;;;;;;5072439;28;20296;-72
2021/06/07 00:15:57;;;;;;;5.97;2.75;;;16.30;99.90;;;;;;5072865;28;20202;-72
2021/06/07 00:18:25;;;;;;;2.83;2.10;;;16.30;99.90;;;;;;5072717;28;20206;-72
2021/06/07 00:20:57;;;;;;;2.13;2.03;;;16.30;99.90;;;;;;5071671;28;20202;-72
2021/06/07 00:23:23;;;;;;;2.83;2.38;;;16.20;99.90;;;;;;5072535;28;20202;-71
2021/06/07 00:25:53;;;;;;;2.35;2.20;;;16.20;99.90;;;;;;5071664;28;20206;-72
2021/06/07 00:28:20;;;;;;;3.50;2.60;;;16.10;99.90;;;;;;5072390;28;20205;-71
2021/06/07 00:30:47;;;;;;;2.53;2.22;;;16.20;99.90;;;;;;5071719;28;20218;-72
2021/06/07 00:33:14;;;;;;;2.20;1.98;;;16.10;99.90;;;;;;5071975;28;20207;-71
2021/06/07 00:35:40;;;;;;;2.10;1.90;;;16.10;99.90;;;;;;5071625;28;20206;-71
2021/06/07 00:38:07;;;;;;;2.88;2.13;;;16.10;99.90;;;;;;5071949;28;20234;-72
2021/06/07 00:40:34;;;;;;;10.90;2.15;;;16.10;99.90;;;;;;5071479;28;20670;-72
2021/06/07 00:43:03;;;;;;;2.83;2.53;;;16.00;99.90;;;;;;5071855;28;20202;-72
2021/06/07 00:45:32;;;;;;;4.53;2.38;;;16.00;99.90;;;;;;5071515;28;20206;-72
2021/06/07 00:48:01;;;;;;;2.17;2.08;;;16.00;99.90;;;;;;5071613;28;20634;-72
2021/06/07 00:50:35;;;;;;;2.47;2.28;;;16.00;99.90;;;;;;5071746;28;20206;-71
2021/06/07 00:53:02;;;;;;;3.13;2.20;;;15.90;99.90;;;;;;5071687;28;20204;-72
2021/06/07 00:55:32;;;;;;;2.38;2.08;;;15.90;99.90;;;;;;5071776;28;20210;-72
2021/06/07 00:57:59;;;;;;;2.50;2.28;;;15.80;99.90;;;;;;5071724;28;20351;-70
2021/06/07 01:00:27;;;;;;;2.35;2.10;;;15.70;99.90;;;;;;5071103;28;20203;-72
2021/06/07 01:02:56;;;;;;;2.78;2.13;;;15.70;99.90;;;;;;5070942;28;20578;-71
2021/06/07 01:05:24;;;;;;;2.47;1.88;;;15.70;99.90;;;;;;5071375;28;20571;-71
2021/06/07 01:07:51;;;;;;;2.60;2.40;;;15.70;99.90;;;;;;5070979;28;20210;-71
2021/06/07 01:10:18;;;;;;;2.22;2.03;;;15.70;99.90;;;;;;5071142;28;20214;-71
2021/06/07 01:12:44;;;;;;;2.30;2.10;;;15.70;99.90;;;;;;5070889;28;20210;-71
2021/06/07 01:15:12;;;;;;;2.47;2.00;;;15.80;99.90;;;;;;5070989;28;20240;-71
2021/06/07 01:17:41;;;;;;;2.08;1.88;;;15.90;99.90;;;;;;5070859;28;20307;-71
2021/06/07 01:20:11;;;;;;;4.00;2.65;;;16.00;99.90;;;;;;5071395;28;20263;-71
2021/06/07 01:22:39;;;;;;;3.30;2.00;;;16.00;99.90;;;;;;5070346;28;20678;-73
2021/06/07 01:25:09;;;;;;;3.33;2.80;;;16.00;99.90;;;;;;5070983;28;20584;-73
2021/06/07 01:27:36;;;;;;;5.88;1.98;;;15.90;99.90;;;;;;5070647;28;20221;-73
2021/06/07 01:30:08;;;;;;;3.13;2.03;;;15.80;99.90;;;;;;5070624;28;20209;-71
2021/06/07 01:32:34;;;;;;;2.47;2.15;;;15.80;99.90;;;;;;5070198;28;20202;-71
2021/06/07 01:35:01;;;;;;;2.28;2.00;;;15.80;99.90;;;;;;5071023;28;20198;-72
2021/06/07 01:37:28;;;;;;;2.15;1.52;;;15.80;99.90;;;;;;5070838;28;20229;-72
2021/06/07 01:39:56;;;;;;;2.13;1.95;;;15.70;99.90;;;;;;5071253;28;20206;-71
2021/06/07 01:42:22;;;;;;;2.58;2.05;;;15.70;99.90;;;;;;5071092;28;20209;-71
2021/06/07 01:44:49;;;;;;;1.88;1.60;;;15.60;99.90;;;;;;5070022;28;20229;-71
2021/06/07 01:47:15;;;;;;;3.38;1.98;;;15.50;99.90;;;;;;5070982;28;20285;-71
2021/06/07 01:49:42;;;;;;;2.63;2.40;;;15.50;99.90;;;;;;5070022;28;20202;-71
2021/06/07 01:52:09;;;;;;;2.55;2.20;;;15.40;99.90;;;;;;5070871;28;20606;-71
2021/06/07 01:54:35;;;;;;;1.90;1.60;;;15.50;99.90;;;;;;5070159;28;20202;-71
2021/06/07 01:57:04;;;;;;;2.65;1.80;;;15.40;99.90;;;;;;5070376;28;20267;-71
2021/06/07 01:59:31;;;;;;;2.95;2.25;;;15.50;99.90;;;;;;5070212;28;20252;-71
2021/06/07 02:01:57;;;;;;;1.63;1.52;;;15.40;99.90;;;;;;5070434;28;20669;-71
2021/06/07 02:04:24;;;;;;;3.42;1.80;;;15.30;99.90;;;;;;5070789;28;20210;-71
2021/06/07 02:06:50;;;;;;;3.55;2.30;;;15.30;99.90;;;;;;5077350;28;20610;-72
2021/06/07 02:09:17;;;;;;;1.75;1.65;;;15.30;99.90;;;;;;5090400;28;20210;-71
2021/06/07 02:11:43;;;;;;;2.65;2.40;;;15.20;99.90;;;;;;5086680;28;20585;-71
2021/06/07 02:14:11;;;;;;;4.47;1.85;;;15.20;99.90;;;;;;5079426;28;20208;-71
2021/06/07 02:16:39;;;;;;;4.75;2.35;;;15.20;99.90;;;;;;5081878;28;20275;-71
2021/06/07 02:19:08;;;;;;;1.75;1.65;;;15.20;99.90;;;;;;5084922;28;20572;-71
2021/06/07 02:21:36;;;;;;;3.50;1.98;;;15.20;99.90;;;;;;5090132;28;20217;-71
2021/06/07 02:24:04;;;;;;;3.50;2.38;;;15.10;99.90;;;;;;5090293;28;20205;-71
2021/06/07 02:26:31;;;;;;;1.50;1.40;;;15.10;99.90;;;;;;5089788;28;20217;-71
2021/06/07 02:29:00;;;;;;;1.73;1.63;;;15.20;99.90;;;;;;5090348;28;20216;-71
2021/06/07 02:31:29;;;;;;;3.72;2.60;;;15.20;99.90;;;;;;5090582;28;20208;-72
2021/06/07 02:33:57;;;;;;;2.85;2.58;;;15.10;99.90;;;;;;5090808;28;20251;-72
2021/06/07 02:36:27;;;;;;;2.90;2.60;;;15.10;99.90;;;;;;5090562;28;20201;-71
2021/06/07 02:38:54;;;;;;;2.83;2.22;;;15.10;99.90;;;;;;5090330;28;20279;-72
2021/06/07 02:41:21;;;;;;;3.08;1.92;;;15.10;99.90;;;;;;5090202;28;20216;-71
2021/06/07 02:43:48;;;;;;;2.83;2.28;;;15.00;99.90;;;;;;5090126;28;20275;-71
2021/06/07 02:46:15;;;;;;;2.60;2.40;;;15.10;99.90;;;;;;5090577;28;20205;-71
2021/06/07 02:48:44;;;;;;;2.20;2.00;;;15.10;99.90;;;;;;5089791;28;20666;-71
2021/06/07 02:51:11;;;;;;;2.83;2.50;;;15.00;99.90;;;;;;5090011;28;20580;-72
2021/06/07 02:53:37;;;;;;;2.20;2.00;;;14.90;99.90;;;;;;5089811;28;20202;-72
2021/06/07 02:56:04;;;;;;;2.20;1.83;;;15.10;99.90;;;;;;5090296;28;20579;-71
2021/06/07 02:58:31;;;;;;;9.20;2.55;;;15.00;99.90;;;;;;5089746;28;20233;-71
2021/06/07 03:01:00;;;;;;;2.65;2.42;;;14.90;99.90;;;;;;5090417;28;20611;-71
2021/06/07 03:03:28;;;;;;;3.10;2.90;;;15.10;99.90;;;;;;5090145;28;20209;-71
2021/06/07 03:05:58;;;;;;;3.45;2.30;;;15.20;99.90;;;;;;5089995;28;20201;-71
2021/06/07 03:08:26;;;;;;;2.47;2.28;;;15.30;99.90;;;;;;5090943;28;20213;-71
2021/06/07 03:10:55;;;;;;;2.67;2.47;;;15.30;99.90;;;;;;5075738;28;20202;-71
2021/06/07 03:13:22;;;;;;;2.88;2.60;;;15.20;99.90;;;;;;5090457;28;20255;-71
2021/06/07 03:15:51;;;;;;;2.92;2.65;;;15.10;99.90;;;;;;5089495;28;20206;-71
2021/06/07 03:18:17;;;;;;;3.88;3.55;;;15.30;99.90;;;;;;5090047;28;20261;-71
2021/06/07 03:20:44;;;;;;;3.95;2.65;;;15.30;99.90;;;;;;5089566;28;20263;-70
2021/06/07 03:23:14;;;;;;;2.80;2.42;;;15.30;99.90;;;;;;5089857;28;20232;-70
2021/06/07 03:25:44;;;;;;;2.45;2.30;;;15.30;99.90;;;;;;5092028;28;20213;-71
2021/06/07 03:28:11;;;;;;;2.60;2.40;;;15.10;99.90;;;;;;5093544;28;20216;-70
2021/06/07 03:30:38;;;;;;;3.85;2.60;;;15.10;99.90;;;;;;5092990;28;20218;-71
2021/06/07 03:33:05;;;;;;;3.88;2.30;;;15.10;99.90;;;;;;5093262;28;20560;-71
2021/06/07 03:35:32;;;;;;;4.15;3.10;;;15.00;99.90;;;;;;5092976;28;20669;-71
2021/06/07 03:37:59;;;;;;;3.05;2.75;;;14.90;99.90;;;;;;5093250;28;20224;-71
2021/06/07 03:40:29;;;;;;;3.20;2.88;;;14.80;99.90;;;;;;5093579;28;20346;-71
2021/06/07 03:42:56;;;;;;;4.35;2.97;;;14.90;99.90;;;;;;5093357;28;20210;-71
2021/06/07 03:45:23;;;;;;;5.00;2.75;;;15.00;99.90;;;;;;5093672;28;20216;-71
2021/06/07 03:47:50;;;;;;;3.60;3.30;;;14.90;99.90;;;;;;5092781;28;20213;-71
2021/06/07 03:50:19;;;;;;;3.90;3.17;;;15.00;99.90;;;;;;5093423;28;20722;-71
2021/06/07 03:52:46;;;;;;;5.97;3.10;;;15.10;99.90;;;;;;5092871;28;20205;-71
2021/06/07 03:55:16;;;;;;;5.60;3.65;;;15.00;99.90;;;;;;5078805;28;20205;-71
2021/06/07 03:57:44;;;;;;;7.53;3.28;;;15.10;99.90;;;;;;5092563;28;20225;-71
2021/06/07 04:00:13;;;;;;;5.00;3.63;;;15.10;99.90;;;;;;5092612;28;20210;-71
2021/06/07 04:02:39;;;;;;;4.45;2.80;;;15.10;99.90;;;;;;5092763;28;20202;-72
2021/06/07 04:05:07;;;;;;;5.45;3.58;;;15.00;99.90;;;;;;5092779;28;20209;-71
2021/06/07 04:07:34;;;;;;;4.38;3.88;;;15.00;99.90;;;;;;5092540;28;20206;-72
2021/06/07 04:10:01;;;;;;;4.68;2.90;;;14.90;99.90;;;;;;5092532;28;20206;-72
2021/06/07 04:12:28;;;;;;;10.60;3.95;;;15.00;99.90;;;;;;5092697;28;20205;-72
2021/06/07 04:14:56;;;;;;;5.60;3.47;;;14.80;99.90;;;;;;5093036;28;20209;-72
2021/06/07 04:17:23;;;;;;;3.50;3.05;;;14.70;99.90;;;;;;5092776;28;20286;-72
2021/06/07 04:19:49;;;;;;;5.95;3.42;;;14.80;99.90;;;;;;5092451;28;20201;-72
2021/06/07 04:22:16;;;;;;;4.95;3.30;;;14.90;99.90;;;;;;5092402;28;20217;-72
2021/06/07 04:24:45;;;;;;;5.75;3.58;;;14.80;99.90;;;;;;5091947;28;20201;-72
2021/06/07 04:27:13;;;;;;;5.28;4.13;;;14.80;99.90;;;;;;5092296;28;20259;-72
2021/06/07 04:29:40;;;;;;;4.50;3.50;;;14.80;99.90;;;;;;5091610;28;20254;-71
2021/06/07 04:32:08;;;;;;;7.55;4.03;;;14.60;99.90;;;;;;5092609;28;20209;-71
2021/06/07 04:34:35;;;;;;;3.58;2.85;;;14.70;99.90;;;;;;5091712;28;20206;-71
2021/06/07 04:37:01;;;;;;;3.90;3.60;;;14.80;99.90;;;;;;5090911;28;20279;-71
2021/06/07 04:39:28;;;;;;;5.68;4.05;;;14.70;99.90;;;;;;5091675;28;20213;-72
2021/06/07 04:41:54;;;;;;;3.88;3.03;;;14.80;99.90;;;;;;5092377;28;20201;-72
2021/06/07 04:44:22;;;;;;;4.47;3.35;;;14.90;99.90;;;;;;5092119;28;20210;-71
2021/06/07 04:46:48;;;;;;;5.22;3.60;;;14.80;99.90;;;;;;5091955;28;20209;-72
2021/06/07 04:49:16;;;;;;;3.58;3.15;;;14.80;99.90;;;;;;5091958;28;20208;-72
2021/06/07 04:51:43;;;;;;;4.97;3.40;;;14.80;99.90;;;;;;5091413;28;20197;-72
2021/06/07 04:54:09;;;;;;;5.00;3.20;;;14.70;99.90;;;;;;5091393;28;20201;-72
2021/06/07 04:56:36;;;;;;;5.43;3.45;;;14.60;99.90;;;;;;5091376;28;20224;-71
2021/06/07 04:59:03;;;;;;;5.15;3.85;;;14.60;99.90;;;;;;5091354;28;20198;-72
2021/06/07 05:01:29;;;;;;;5.55;3.97;;;14.70;99.90;;;;;;5091166;28;20201;-71
2021/06/07 05:03:56;;;;;;;4.43;3.58;;;14.80;99.90;;;;;;5091951;28;20677;-71
2021/06/07 05:06:24;;;;;;;5.65;4.03;;;14.80;99.90;;;;;;5091890;28;20218;-71
2021/06/07 05:08:50;;;;;;;3.95;3.00;;;14.80;99.90;;;;;;5063263;28;20209;-70
2021/06/07 05:11:17;;;;;;;4.65;4.13;;;14.80;99.90;;;;;;5091860;28;20205;-71
2021/06/07 05:13:44;;;;;;;6.45;4.35;;;14.80;99.90;;;;;;5090652;28;20208;-70
2021/06/07 05:16:10;;;;;;;7.55;4.22;;;15.10;99.90;;;;;;5091582;28;20212;-71
2021/06/07 05:18:37;;;;;;;4.22;3.83;;;15.00;99.90;;;;;;5090924;28;20229;-71
2021/06/07 05:21:03;;;;;;;4.95;4.55;;;15.10;99.90;;;;;;5090908;28;20209;-71
2021/06/07 05:23:31;;;;;;;6.22;3.72;;;15.20;99.90;;;;;;5091009;28;20224;-71
2021/06/07 05:25:58;;;;;;;5.35;3.67;;;15.20;99.90;;;;;;5090994;28;20216;-71
2021/06/07 05:28:25;;;;;;;4.82;4.30;;;15.30;99.90;;;;;;5091824;28;20210;-70
2021/06/07 05:30:52;;;;;;;4.28;3.85;;;15.30;99.90;;;;;;5090574;28;20591;-73
2021/06/07 05:33:19;;;;;;;4.60;3.70;;;15.40;99.90;;;;;;5091099;28;20578;-72
2021/06/07 05:35:49;;;;;;;3.40;3.03;;;15.40;99.90;;;;;;5090703;28;20671;-71
2021/06/07 05:38:16;;;;;;;5.35;3.92;;;15.50;99.90;;;;;;5091215;28;20608;-71
2021/06/07 05:40:45;;;;;;;6.35;4.10;;;15.60;99.90;;;;;;5090971;28;20217;-72
2021/06/07 05:43:16;;;;;;;9.05;4.32;;;15.60;99.90;;;;;;5090952;28;20202;-73
2021/06/07 05:45:42;;;;;;;4.28;3.88;;;15.70;99.90;;;;;;5090545;28;20213;-73
2021/06/07 05:48:09;;;;;;;5.43;4.60;;;15.70;99.90;;;;;;5090375;28;20210;-72
2021/06/07 05:50:36;;;;;;;5.47;4.03;;;15.80;99.90;;;;;;5090267;28;20205;-73
2021/06/07 05:53:04;;;;;;;10.55;4.40;;;15.90;99.90;;;;;;5090595;28;20300;-72
2021/06/07 05:55:34;;;;;;;4.20;3.80;;;15.90;99.90;;;;;;5090602;28;20210;-72
2021/06/07 05:58:06;;;;;;;4.72;3.53;;;16.00;99.90;;;;;;5089648;28;20241;-73
2021/06/07 06:00:34;;;;;;;9.10;3.92;;;16.10;99.90;;;;;;5077903;28;20213;-72
2021/06/07 06:03:01;;;;;;;9.95;3.80;;;16.10;99.90;;;;;;5090651;28;20206;-73
2021/06/07 06:05:28;;;;;;;5.82;4.07;;;16.10;99.90;;;;;;5090631;28;20726;-72
2021/06/07 06:07:55;;;;;;;5.15;3.72;;;16.30;99.90;;;;;;5091215;28;20270;-71
2021/06/07 06:10:23;;;;;;;6.03;4.15;;;16.30;99.90;;;;;;5090919;28;20646;-71
2021/06/07 06:12:49;;;;;;;9.23;4.28;;;16.30;99.90;;;;;;5090309;28;20216;-71
2021/06/07 06:15:19;;;;;;;6.70;3.60;;;16.40;99.90;;;;;;5090434;28;20205;-71
2021/06/07 06:17:46;;;;;;;7.78;4.15;;;16.50;99.90;;;;;;5089830;28;20704;-71
2021/06/07 06:20:13;;;;;;;4.20;3.33;;;16.70;99.90;;;;;;5090601;28;20217;-70
2021/06/07 06:22:40;;;;;;;5.07;3.83;;;16.70;99.90;;;;;;5089805;28;20210;-71
2021/06/07 06:25:10;;;;;;;4.45;3.10;;;16.80;99.90;;;;;;5090592;28;20208;-72
2021/06/07 06:27:37;;;;;;;6.13;3.90;;;16.90;99.90;;;;;;5090033;28;20700;-72
2021/06/07 06:30:05;;;;;;;4.35;3.95;;;16.90;99.90;;;;;;5090412;28;20216;-71
2021/06/07 06:32:33;;;;;;;4.30;3.90;;;17.00;99.90;;;;;;5081296;28;20198;-72
2021/06/07 06:35:00;;;;;;;5.95;4.03;;;17.20;99.90;;;;;;5075147;28;20700;-71
2021/06/07 06:37:26;;;;;;;5.82;3.58;;;17.30;99.90;;;;;;5078951;28;20349;-72
2021/06/07 06:39:53;;;;;;;3.95;3.42;;;17.40;99.90;;;;;;5070013;28;20207;-73
2021/06/07 06:42:19;;;;;;;6.00;4.25;;;17.40;99.90;;;;;;5069786;28;20210;-76
2021/06/07 06:44:46;;;;;;;4.30;3.13;;;17.50;99.90;;;;;;5069364;28;20198;-73
2021/06/07 06:47:12;;;;;;;6.75;4.28;;;17.70;99.90;;;;;;5069488;28;20213;-75
2021/06/07 06:49:40;;;;;;;6.88;4.03;;;18.20;99.90;;;;;;5069376;28;20209;-70
2021/06/07 06:52:07;;;;;;;5.72;3.60;;;18.30;99.90;;;;;;5069907;28;20255;-73
2021/06/07 06:54:33;;;;;;;4.90;3.28;;;18.10;99.90;;;;;;5069315;28;20674;-76
2021/06/07 06:57:00;;;;;;;9.93;4.20;;;18.00;99.90;;;;;;5069455;28;20631;-71
2021/06/07 06:59:26;;;;;;;6.68;3.75;;;18.10;99.90;;;;;;5071370;28;20206;-71
2021/06/07 07:01:53;;;;;;;6.55;3.70;;;18.10;99.90;;;;;;5073575;28;20205;-75
2021/06/07 07:04:19;;;;;;;4.28;3.03;;;18.10;99.90;;;;;;5073384;28;20639;-75
2021/06/07 07:06:47;;;;;;;5.15;3.35;;;18.20;99.90;;;;;;5073151;28;20578;-76
2021/06/07 07:09:14;;;;;;;4.65;3.75;;;18.30;99.90;;;;;;5071933;28;20253;-72
2021/06/07 07:11:40;;;;;;;6.43;3.22;;;18.50;99.90;;;;;;5076038;28;20202;-71
2021/06/07 07:14:07;;;;;;;11.60;4.50;;;18.60;99.90;;;;;;5079624;28;20668;-72
2021/06/07 07:16:33;;;;;;;4.25;3.65;;;18.60;99.90;;;;;;5078048;28;20665;-74
2021/06/07 07:19:00;;;;;;;4.00;3.63;;;18.70;99.90;;;;;;5072908;28;20240;-73
2021/06/07 07:21:26;;;;;;;3.88;3.25;;;18.80;99.90;;;;;;5073249;28;20209;-72
2021/06/07 07:23:54;;;;;;;4.63;3.25;;;18.90;99.90;;;;;;5073158;28;20210;-73
2021/06/07 07:26:21;;;;;;;5.70;3.75;;;19.00;99.90;;;;;;5074032;28;20262;-74
2021/06/07 07:28:47;;;;;;;5.35;3.42;;;19.10;99.90;;;;;;5073037;28;20266;-73
2021/06/07 07:31:14;;;;;;;4.22;3.35;;;19.40;99.90;;;;;;5074671;28;20626;-74
2021/06/07 07:33:45;;;;;;;6.90;3.13;;;19.80;99.90;;;;;;5074061;28;20233;-71
2021/06/07 07:36:11;;;;;;;6.60;4.18;;;19.80;99.90;;;;;;5076755;28;20280;-75
2021/06/07 07:38:38;;;;;;;6.13;3.78;;;19.80;99.90;;;;;;5075015;28;20238;-73
2021/06/07 07:41:06;;;;;;;5.47;3.08;;;20.00;99.90;;;;;;5078173;28;20672;-73
2021/06/07 07:43:32;;;;;;;3.85;3.03;;;22.50;99.90;;;;;;5075941;28;20679;-72
2021/06/07 07:45:59;;;;;;;4.40;3.45;;;23.60;99.90;;;;;;5079904;28;20208;-74
2021/06/07 07:48:26;;;;;;;5.38;3.00;;;22.50;99.90;;;;;;5077612;28;20206;-73
2021/06/07 07:50:52;;;;;;;7.78;3.30;;;21.50;99.90;;;;;;5073629;28;20202;-72
2021/06/07 07:53:20;;;;;;;3.38;3.08;;;21.20;99.90;;;;;;5076886;28;20202;-74
2021/06/07 07:55:47;;;;;;;3.08;2.63;;;21.60;99.90;;;;;;5077955;28;20206;-72
2021/06/07 07:58:15;;;;;;;5.32;3.53;;;22.10;99.90;;;;;;5079058;28;20246;-71
2021/06/07 08:00:42;;;;;;;5.80;2.80;;;22.00;99.90;;;;;;5081570;28;20236;-72
2021/06/07 08:03:09;;;;;;;4.70;2.50;;;23.00;99.90;;;;;;5074099;28;20214;-72
2021/06/07 08:05:36;;;;;;;4.03;3.42;;;23.90;99.90;;;;;;5076982;28;20206;-72
2021/06/07 08:08:03;;;;;;;3.25;2.88;;;23.30;99.90;;;;;;5091588;28;20210;-73
2021/06/07 08:10:30;;;;;;;7.43;3.42;;;23.70;99.90;;;;;;5090396;28;20208;-73
2021/06/07 08:12:59;;;;;;;3.90;2.70;;;23.20;99.90;;;;;;5072609;28;20203;-72
2021/06/07 08:15:27;;;;;;;3.55;2.70;;;23.50;99.90;;;;;;5073213;28;20198;-73
2021/06/07 08:17:54;;;;;;;5.75;3.70;;;24.90;99.90;;;;;;5072897;28;20237;-73
2021/06/07 08:20:21;;;;;;;7.03;2.90;;;24.90;99.90;;;;;;5074425;28;20210;-72
2021/06/07 08:22:50;;;;;;;2.83;2.63;;;24.20;99.90;;;;;;5074779;28;20218;-72
2021/06/07 08:25:17;;;;;;;4.03;2.92;;;22.70;99.90;;;;;;5075354;28;21117;-72
2021/06/07 08:27:44;;;;;;;3.95;3.15;;;22.30;99.90;;;;;;5077135;28;20213;-72
2021/06/07 08:30:12;;;;;;;4.05;3.03;;;21.70;99.90;;;;;;5076162;28;20206;-73
2021/06/07 08:32:40;;;;;;;4.70;3.40;;;21.60;99.90;;;;;;5079959;28;20205;-73
2021/06/07 08:35:10;;;;;;;3.65;3.33;;;21.70;99.90;;;;;;5071831;28;20210;-75
2021/06/07 08:37:37;;;;;;;5.32;3.35;;;21.70;99.90;;;;;;5065180;28;20237;-72
2021/06/07 08:40:05;;;;;;;2.67;2.47;;;22.10;99.90;;;;;;5076701;28;20210;-73
2021/06/07 08:42:33;;;;;;;3.45;3.15;;;22.20;99.90;;;;;;5081278;28;20202;-73
2021/06/07 08:44:59;;;;;;;4.45;2.88;;;22.40;99.90;;;;;;5075879;28;20202;-73
2021/06/07 08:47:26;;;;;;;3.95;2.72;;;22.80;99.90;;;;;;5080697;28;20291;-73
2021/06/07 08:49:54;;;;;;;5.88;3.10;;;24.40;99.90;;;;;;5078358;28;20678;-73
2021/06/07 08:52:21;;;;;;;5.75;3.55;;;23.60;99.90;;;;;;5081535;28;20202;-73
2021/06/07 08:54:48;;;;;;;5.55;3.60;;;23.30;99.90;;;;;;5074254;28;20206;-74
2021/06/07 08:57:14;;;;;;;3.40;3.10;;;23.70;99.90;;;;;;5071411;28;20225;-74
2021/06/07 08:59:41;;;;;;;6.15;3.00;;;24.80;99.90;;;;;;5070998;28;20264;-74
2021/06/07 09:02:07;;;;;;;4.97;3.45;;;26.70;99.90;;;;;;5071342;28;20202;-73
2021/06/07 09:04:47;;;;;;;4.10;3.28;;;25.70;99.90;;;;;;5071285;28;20209;-73
2021/06/07 09:07:15;;;;;;;3.60;2.50;;;25.20;99.90;;;;;;5065922;28;20206;-72
2021/06/07 09:09:43;;;;;;;6.10;3.40;;;24.80;99.90;;;;;;5071165;28;20209;-73
2021/06/07 09:12:22;;;;;;;4.53;3.00;;;24.90;99.90;;;;;;5070713;28;20293;-72
2021/06/07 09:14:50;;;;;;;3.30;2.65;;;25.30;99.90;;;;;;5080258;28;20212;-73
2021/06/07 09:17:18;;;;;;;2.33;2.13;;;24.40;99.90;;;;;;5091403;28;20240;-73
2021/06/07 09:19:46;;;;;;;2.55;2.35;;;24.40;99.90;;;;;;5091195;28;20205;-75
2021/06/07 09:22:25;;;;;;;2.63;2.35;;;25.30;99.90;;;;;;5090591;28;20688;-74
2021/06/07 09:25:06;;;;;;;5.45;2.92;;;24.60;99.90;;;;;;5091271;28;20201;-73
2021/06/07 09:27:33;;;;;;;3.17;2.30;;;24.20;99.90;;;;;;5075044;28;20210;-73
2021/06/07 09:30:00;;;;;;;7.10;2.30;;;25.30;99.90;;;;;;5091599;28;20209;-74
2021/06/07 09:32:26;;;;;;;2.33;2.13;;;25.90;99.90;;;;;;5091399;28;20209;-73
2021/06/07 09:35:08;;;;;;;2.58;2.38;;;24.70;99.90;;;;;;5090952;28;20205;-75
2021/06/07 09:37:37;;;;;;;5.60;2.42;;;25.30;99.90;;;;;;5090398;28;20271;-73
2021/06/07 09:40:18;;;;;;;3.30;2.00;;;25.60;99.90;;;;;;5091412;28;20216;-74
2021/06/07 09:43:06;;;;;;;2.97;2.55;;;24.80;99.90;;;;;;5090491;28;20209;-74
2021/06/07 09:45:44;;;;;;;2.30;2.10;;;24.90;99.90;;;;;;5087331;28;20210;-73
2021/06/07 09:48:12;;;;;;;3.10;2.22;;;25.00;99.90;;;;;;5090713;28;20212;-73
2021/06/07 09:50:53;;;;;;;3.78;2.50;;;23.80;99.90;;;;;;5090471;28;20750;-74
2021/06/07 09:53:42;;;;;;;3.90;2.50;;;23.20;99.90;;;;;;5090864;28;20255;-73
2021/06/07 09:56:09;;;;;;;3.63;2.28;;;24.30;99.90;;;;;;5090734;28;20209;-75
2021/06/07 09:58:36;;;;;;;3.97;2.05;;;25.40;99.90;;;;;;5090195;28;20225;-74
2021/06/07 10:01:11;;;;;;;2.72;1.73;;;28.00;99.90;;;;;;5091085;28;20241;-75
2021/06/07 10:03:42;;;;;;;2.70;2.28;;;28.20;99.90;;;;;;5074401;28;20197;-74
2021/06/07 10:06:20;;;;;;;2.33;2.05;;;26.80;99.90;;;;;;5090677;28;20692;-74
2021/06/07 10:08:51;;;;;;;3.25;1.75;;;27.50;99.90;;;;;;5089992;28;20251;-74
2021/06/07 10:11:19;;;;;;;3.42;1.88;;;28.70;99.90;;;;;;5090759;28;20580;-74
2021/06/07 10:13:46;;;;;;;2.95;2.20;;;30.90;99.90;;;;;;5090059;28;20204;-75
2021/06/07 10:16:12;;;;;;;2.33;2.13;;;31.20;99.90;;;;;;5090899;28;20205;-75
2021/06/07 10:18:41;;;;;;;2.03;1.85;;;31.40;99.90;;;;;;5090051;28;20652;-76
2021/06/07 10:21:08;;;;;;;1.90;1.70;;;33.20;99.90;;;;;;5081474;28;20205;-78
2021/06/07 10:23:35;;;;;;;2.45;2.25;;;34.20;99.90;;;;;;5065193;28;20212;-75
2021/06/07 10:26:05;;;;;;;2.25;2.08;;;35.60;99.90;;;;;;5069235;28;20589;-74
2021/06/07 10:28:34;;;;;;;1.98;1.70;;;34.80;99.90;;;;;;5069666;28;20206;-74
2021/06/07 10:31:10;;;;;;;2.13;1.92;;;36.00;99.90;;;;;;5076196;28;20209;-73
2021/06/07 10:33:38;;;;;;;2.40;1.85;;;33.60;99.90;;;;;;5070702;28;20288;-73
2021/06/07 10:36:32;;;;;;;4.72;1.75;;;29.40;99.90;;;;;;5076200;28;20255;-72
2021/06/07 10:39:37;;;;;;;5.30;4.07;;;27.40;99.90;;;;;;5079773;28;20241;-73
2021/06/07 10:42:28;;;;;;;7.28;5.13;;;26.20;99.90;;;;;;5077579;28;20209;-72
2021/06/07 10:45:01;;;;;;;6.13;4.93;;;24.50;99.90;;;;;;5065547;28;20264;-72
2021/06/07 10:47:30;;;;;;;2.20;2.00;;;24.00;99.90;;;;;;5074202;28;20230;-73
2021/06/07 10:50:03;;;;;;;2.20;2.10;;;24.80;99.90;;;;;;5077768;28;20205;-72
2021/06/07 10:52:39;;;;;;;3.75;1.85;;;25.80;99.90;;;;;;5075876;28;20208;-74
2021/06/07 10:55:10;;;;;;;4.53;2.38;;;25.20;99.90;;;;;;5073779;28;20210;-73
2021/06/07 10:57:41;;;;;;;2.80;2.33;;;24.10;99.90;;;;;;5073318;28;20226;-73
2021/06/07 11:00:14;;;;;;;2.45;1.75;;;23.50;99.90;;;;;;5073991;28;20197;-73
2021/06/07 11:02:43;;;;;;;4.50;1.83;;;24.30;99.90;;;;;;5073371;28;20202;-71
2021/06/07 11:05:12;;;;;;;2.22;2.03;;;24.90;99.90;;;;;;5073179;28;20228;-75
2021/06/07 11:07:43;;;;;;;3.95;2.25;;;25.60;99.90;;;;;;5073094;28;20739;-72
2021/06/07 11:10:21;;;;;;;4.32;2.30;;;26.00;99.90;;;;;;5072113;28;20578;-74
2021/06/07 11:12:49;;;;;;;3.45;3.15;;;25.70;99.90;;;;;;5081518;28;20210;-77
2021/06/07 11:15:19;;;;;;;2.75;1.90;;;24.90;99.90;;;;;;5078396;28;20271;-73
2021/06/07 11:17:46;;;;;;;2.30;2.10;;;24.10;99.90;;;;;;5073474;28;20229;-75
2021/06/07 11:20:14;;;;;;;2.80;1.88;;;23.60;99.90;;;;;;5074306;28;20289;-77
2021/06/07 11:23:04;;;;;;;4.13;2.65;;;23.30;99.90;;;;;;5075583;28;20210;-75
2021/06/07 11:25:30;;;;;;;2.15;1.95;;;24.30;99.90;;;;;;5076496;28;20202;-71
2021/06/07 11:27:58;;;;;;;2.08;1.95;;;25.20;99.90;;;;;;5075794;28;20206;-71
2021/06/07 11:30:25;;;;;;;2.58;2.35;;;24.70;99.90;;;;;;5076981;28;20214;-75
2021/06/07 11:32:51;;;;;;;3.75;2.20;;;24.30;99.90;;;;;;5081534;28;20202;-73
2021/06/07 11:35:43;;;;;;;2.50;2.13;;;24.30;99.90;;;;;;5082619;28;20252;-72
2021/06/07 11:38:28;;;;;;;2.15;1.88;;;25.40;99.90;;;;;;5075335;28;20236;-72
2021/06/07 11:40:55;;;;;;;3.08;2.20;;;25.80;99.90;;;;;;5073039;28;20712;-75
2021/06/07 11:44:03;;;;;;;2.78;2.00;;;26.00;99.90;;;;;;5073277;28;20630;-77
2021/06/07 11:46:59;;;;;;;1.60;1.50;;;25.00;99.90;;;;;;5034831;28;20202;-73
2021/06/07 11:49:26;;;;;;;3.65;2.33;;;24.20;99.90;;;;;;5081912;28;20209;-73
2021/06/07 11:52:08;;;;;;;3.63;2.33;;;24.30;99.90;;;;;;5077422;28;20622;-72
2021/06/07 11:54:49;;;;;;;3.13;2.13;;;24.20;99.90;;;;;;5075406;28;20289;-71
2021/06/07 11:57:16;;;;;;;2.83;1.73;;;24.60;99.90;;;;;;5080566;28;20237;-72
2021/06/07 11:59:43;;;;;;;2.70;2.13;;;24.60;99.90;;;;;;5075463;28;20275;-75
2021/06/07 12:02:12;;;;;;;5.00;3.05;;;24.60;99.90;;;;;;5074579;28;20213;-73
2021/06/07 12:04:40;;;;;;;2.67;2.05;;;24.30;99.90;;;;;;5076922;28;20690;-74
2021/06/07 12:07:08;;;;;;;2.70;2.10;;;24.20;99.90;;;;;;5075354;28;20205;-76
2021/06/07 12:09:35;;;;;;;2.92;2.00;;;24.50;99.90;;;;;;5077398;28;20213;-74
2021/06/07 12:12:03;;;;;;;6.20;1.85;;;25.20;99.90;;;;;;5078260;28;20206;-75
2021/06/07 12:14:32;;;;;;;4.07;2.45;;;25.50;99.90;;;;;;5083473;28;20235;-72
2021/06/07 12:17:03;;;;;;;1.80;1.70;;;25.60;99.90;;;;;;5079076;28;20357;-75
2021/06/07 12:19:37;;;;;;;1.63;1.52;;;25.20;99.90;;;;;;5073371;28;20256;-71
2021/06/07 12:22:05;;;;;;;2.35;2.13;;;25.10;99.90;;;;;;5080938;28;20225;-73
2021/06/07 12:24:33;;;;;;;3.65;1.98;;;24.30;99.90;;;;;;5077530;28;20194;-75
2021/06/07 12:29:46;;;;;;;2.38;1.83;;;23.70;99.90;;;;;;5064804;28;20201;-71
2021/06/07 12:32:16;;;;;;;2.72;1.88;;;24.40;99.90;;;;;;5085181;28;20218;-74
2021/06/07 12:35:10;;;;;;;1.50;1.40;;;24.80;99.90;;;;;;5072271;28;20202;-74
2021/06/07 12:37:39;;;;;;;1.52;1.30;;;24.90;99.90;;;;;;5075351;28;20713;-74
2021/06/07 12:40:29;;;;;;;1.65;1.48;;;25.10;99.90;;;;;;5071787;28;20202;-77
2021/06/07 12:42:59;;;;;;;2.05;1.20;;;24.80;99.90;;;;;;5069095;28;20213;-74
2021/06/07 12:45:28;;;;;;;1.50;1.40;;;24.50;99.90;;;;;;5074857;28;20217;-73
2021/06/07 12:47:55;;;;;;;1.65;1.35;;;24.30;99.90;;;;;;5078520;28;20742;-75
2021/06/07 12:50:25;;;;;;;1.02;0.93;;;24.80;99.90;;;;;;5075073;28;20202;-74
2021/06/07 12:52:54;;;;;;;1.60;1.50;;;25.10;99.90;;;;;;5080068;28;20198;-76
2021/06/07 12:55:23;;;;;;;1.80;1.70;;;25.30;99.90;;;;;;5071958;28;20684;-75
2021/06/07 12:57:51;;;;;;;2.92;1.20;;;25.50;99.90;;;;;;5070237;28;20234;-73